sensor_id;sensor_type;location;lat;lon;timestamp;temperature;humidity
2407;DHT22;37709;53.480;9.688;2022-07-09T00:02:04;13.60;99.90
2407;DHT22;37709;53.480;9.688;2022-07-09T00:04:32;13.50;99.90
2407;DHT22;37709;53.480;9.688;2022-07-09T00:07:00;13.60;99.90
2407;DHT22;37709;53.480;9.688;2022-07-09T00:09:27;13.60;99.90
2407;DHT22;37709;53.480;9.688;2022-07-09T00:11:55;13.50;99.90
2407;DHT22;37709;53.480;9.688;2022-07-09T00:14:24;13.40;99.90
2407;DHT22;37709;53.480;9.688;2022-07-09T00:16:51;13.30;99.90
2407;DHT22;37709;53.480;9.688;2022-07-09T00:19:18;13.20;99.90
2407;DHT22;37709;53.480;9.688;2022-07-09T00:21:46;13.20;99.90
2407;DHT22;37709;53.480;9.688;2022-07-09T00:24:13;13.20;99.90
2407;DHT22;37709;53.480;9.688;2022-07-09T00:26:41;13.10;99.90
2407;DHT22;37709;53.480;9.688;2022-07-09T00:29:08;13.00;99.90
2407;DHT22;37709;53.480;9.688;2022-07-09T00:31:36;13.00;99.90
2407;DHT22;37709;53.480;9.688;2022-07-09T00:34:05;13.00;99.90
2407;DHT22;37709;53.480;9.688;2022-07-09T00:36:33;13.00;99.90
2407;DHT22;37709;53.480;9.688;2022-07-09T00:39:00;12.90;99.90
2407;DHT22;37709;53.480;9.688;2022-07-09T00:41:28;12.90;99.90
2407;DHT22;37709;53.480;9.688;2022-07-09T00:43:55;12.90;99.90
2407;DHT22;37709;53.480;9.688;2022-07-09T00:46:23;12.80;99.90
2407;DHT22;37709;53.480;9.688;2022-07-09T00:48:51;12.80;99.90
2407;DHT22;37709;53.480;9.688;2022-07-09T00:51:19;12.80;99.90
2407;DHT22;37709;53.480;9.688;2022-07-09T00:53:48;12.80;99.90
2407;DHT22;37709;53.480;9.688;2022-07-09T00:56:17;12.80;99.90
2407;DHT22;37709;53.480;9.688;2022-07-09T00:58:45;12.90;99.90
2407;DHT22;37709;53.480;9.688;2022-07-09T01:01:13;13.00;99.90
2407;DHT22;37709;53.480;9.688;2022-07-09T01:03:41;13.10;99.90
2407;DHT22;37709;53.480;9.688;2022-07-09T01:06:09;13.10;99.90
2407;DHT22;37709;53.480;9.688;2022-07-09T01:08:36;13.20;99.90
2407;DHT22;37709;53.480;9.688;2022-07-09T01:11:04;13.20;99.90
2407;DHT22;37709;53.480;9.688;2022-07-09T01:13:32;13.30;99.90
2407;DHT22;37709;53.480;9.688;2022-07-09T01:16:00;13.30;99.90
2407;DHT22;37709;53.480;9.688;2022-07-09T01:18:27;13.40;99.90
2407;DHT22;37709;53.480;9.688;2022-07-09T01:20:55;13.40;99.90
2407;DHT22;37709;53.480;9.688;2022-07-09T01:23:22;13.40;99.90
2407;DHT22;37709;53.480;9.688;2022-07-09T01:25:49;13.50;99.90
2407;DHT22;37709;53.480;9.688;2022-07-09T01:28:17;13.50;99.90
2407;DHT22;37709;53.480;9.688;2022-07-09T01:30:45;13.50;99.90
2407;DHT22;37709;53.480;9.688;2022-07-09T01:33:13;13.60;99.90
2407;DHT22;37709;53.480;9.688;2022-07-09T01:35:40;13.60;99.90
2407;DHT22;37709;53.480;9.688;2022-07-09T01:38:08;13.60;99.90
2407;DHT22;37709;53.480;9.688;2022-07-09T01:40:36;13.60;99.90
2407;DHT22;37709;53.480;9.688;2022-07-09T01:43:04;13.70;99.90
2407;DHT22;37709;53.480;9.688;2022-07-09T01:45:31;13.70;99.90
2407;DHT22;37709;53.480;9.688;2022-07-09T01:47:58;13.70;99.90
2407;DHT22;37709;53.480;9.688;2022-07-09T01:50:26;13.70;99.90
2407;DHT22;37709;53.480;9.688;2022-07-09T01:52:54;13.70;99.90
2407;DHT22;37709;53.480;9.688;2022-07-09T01:55:21;13.70;99.90
2407;DHT22;37709;53.480;9.688;2022-07-09T01:57:49;13.70;99.90
2407;DHT22;37709;53.480;9.688;2022-07-09T02:00:16;13.70;99.90
2407;DHT22;37709;53.480;9.688;2022-07-09T02:02:45;13.70;99.90
2407;DHT22;37709;53.480;9.688;2022-07-09T02:05:13;13.70;99.90
2407;DHT22;37709;53.480;9.688;2022-07-09T02:07:40;13.80;99.90
2407;DHT22;37709;53.480;9.688;2022-07-09T02:10:08;13.70;99.90
2407;DHT22;37709;53.480;9.688;2022-07-09T02:12:35;13.80;99.90
2407;DHT22;37709;53.480;9.688;2022-07-09T02:15:03;13.80;99.90
2407;DHT22;37709;53.480;9.688;2022-07-09T02:17:31;13.80;99.90
2407;DHT22;37709;53.480;9.688;2022-07-09T02:19:59;13.80;99.90
2407;DHT22;37709;53.480;9.688;2022-07-09T02:22:27;13.80;99.90
2407;DHT22;37709;53.480;9.688;2022-07-09T02:24:54;13.70;99.90
2407;DHT22;37709;53.480;9.688;2022-07-09T02:27:21;13.80;99.90
2407;DHT22;37709;53.480;9.688;2022-07-09T02:29:49;13.70;99.90
2407;DHT22;37709;53.480;9.688;2022-07-09T02:32:17;13.80;99.90
2407;DHT22;37709;53.480;9.688;2022-07-09T02:34:44;13.80;99.90
2407;DHT22;37709;53.480;9.688;2022-07-09T02:37:12;13.80;99.90
2407;DHT22;37709;53.480;9.688;2022-07-09T02:39:39;13.80;99.90
2407;DHT22;37709;53.480;9.688;2022-07-09T02:42:07;13.80;99.90
2407;DHT22;37709;53.480;9.688;2022-07-09T02:44:34;13.80;99.90
2407;DHT22;37709;53.480;9.688;2022-07-09T02:47:03;13.80;99.90
2407;DHT22;37709;53.480;9.688;2022-07-09T02:49:31;13.80;99.90
2407;DHT22;37709;53.480;9.688;2022-07-09T02:51:59;13.70;99.90
2407;DHT22;37709;53.480;9.688;2022-07-09T02:54:27;13.70;99.90
2407;DHT22;37709;53.480;9.688;2022-07-09T02:56:55;13.70;99.90
2407;DHT22;37709;53.480;9.688;2022-07-09T02:59:23;13.60;99.90
2407;DHT22;37709;53.480;9.688;2022-07-09T03:01:50;13.60;99.90
2407;DHT22;37709;53.480;9.688;2022-07-09T03:04:17;13.70;99.90
2407;DHT22;37709;53.480;9.688;2022-07-09T03:06:45;13.80;99.90
2407;DHT22;37709;53.480;9.688;2022-07-09T03:09:13;13.80;99.90
2407;DHT22;37709;53.480;9.688;2022-07-09T03:11:40;13.90;99.90
2407;DHT22;37709;53.480;9.688;2022-07-09T03:14:07;13.90;99.90
2407;DHT22;37709;53.480;9.688;2022-07-09T03:16:35;13.90;99.90
2407;DHT22;37709;53.480;9.688;2022-07-09T03:19:03;13.90;99.90
2407;DHT22;37709;53.480;9.688;2022-07-09T03:21:30;13.90;99.90
2407;DHT22;37709;53.480;9.688;2022-07-09T03:23:58;14.00;99.90
2407;DHT22;37709;53.480;9.688;2022-07-09T03:26:25;14.00;99.90
2407;DHT22;37709;53.480;9.688;2022-07-09T03:28:52;14.00;99.90
2407;DHT22;37709;53.480;9.688;2022-07-09T03:31:20;14.00;99.90
2407;DHT22;37709;53.480;9.688;2022-07-09T03:33:48;14.00;99.90
2407;DHT22;37709;53.480;9.688;2022-07-09T03:36:21;14.00;99.90
2407;DHT22;37709;53.480;9.688;2022-07-09T03:38:49;14.00;99.90
2407;DHT22;37709;53.480;9.688;2022-07-09T03:41:16;14.00;99.90
2407;DHT22;37709;53.480;9.688;2022-07-09T03:43:43;14.10;99.90
2407;DHT22;37709;53.480;9.688;2022-07-09T03:46:11;14.00;99.90
2407;DHT22;37709;53.480;9.688;2022-07-09T03:48:38;14.10;99.90
2407;DHT22;37709;53.480;9.688;2022-07-09T03:51:08;14.10;99.90
2407;DHT22;37709;53.480;9.688;2022-07-09T03:53:35;14.00;99.90
2407;DHT22;37709;53.480;9.688;2022-07-09T03:56:03;13.90;99.90
2407;DHT22;37709;53.480;9.688;2022-07-09T03:58:30;13.90;99.90
2407;DHT22;37709;53.480;9.688;2022-07-09T04:00:59;14.00;99.90
2407;DHT22;37709;53.480;9.688;2022-07-09T04:03:27;14.10;99.90
2407;DHT22;37709;53.480;9.688;2022-07-09T04:05:54;14.20;99.90
2407;DHT22;37709;53.480;9.688;2022-07-09T04:08:22;14.20;99.90
2407;DHT22;37709;53.480;9.688;2022-07-09T04:10:49;14.20;99.90
2407;DHT22;37709;53.480;9.688;2022-07-09T04:13:16;14.30;99.90
2407;DHT22;37709;53.480;9.688;2022-07-09T04:15:44;14.30;99.90
2407;DHT22;37709;53.480;9.688;2022-07-09T04:18:14;14.30;99.90
2407;DHT22;37709;53.480;9.688;2022-07-09T04:20:42;14.40;99.90
2407;DHT22;37709;53.480;9.688;2022-07-09T04:23:11;14.40;99.90
2407;DHT22;37709;53.480;9.688;2022-07-09T04:25:39;14.50;99.90
2407;DHT22;37709;53.480;9.688;2022-07-09T04:28:06;14.60;99.90
2407;DHT22;37709;53.480;9.688;2022-07-09T04:30:34;14.60;99.90
2407;DHT22;37709;53.480;9.688;2022-07-09T04:33:02;14.70;99.90
2407;DHT22;37709;53.480;9.688;2022-07-09T04:35:29;14.70;99.90
2407;DHT22;37709;53.480;9.688;2022-07-09T04:37:57;14.70;99.90
2407;DHT22;37709;53.480;9.688;2022-07-09T04:40:25;14.70;99.90
2407;DHT22;37709;53.480;9.688;2022-07-09T04:42:52;14.70;99.90
2407;DHT22;37709;53.480;9.688;2022-07-09T04:45:20;14.80;99.90
2407;DHT22;37709;53.480;9.688;2022-07-09T04:47:47;14.80;99.90
2407;DHT22;37709;53.480;9.688;2022-07-09T04:50:15;14.90;99.90
2407;DHT22;37709;53.480;9.688;2022-07-09T04:52:43;14.90;99.90
2407;DHT22;37709;53.480;9.688;2022-07-09T04:55:12;14.90;99.90
2407;DHT22;37709;53.480;9.688;2022-07-09T04:57:39;14.90;99.90
2407;DHT22;37709;53.480;9.688;2022-07-09T05:00:07;15.00;99.90
2407;DHT22;37709;53.480;9.688;2022-07-09T05:02:35;15.00;99.90
2407;DHT22;37709;53.480;9.688;2022-07-09T05:05:03;15.00;99.90
2407;DHT22;37709;53.480;9.688;2022-07-09T05:07:31;15.00;99.90
2407;DHT22;37709;53.480;9.688;2022-07-09T05:09:59;15.10;99.90
2407;DHT22;37709;53.480;9.688;2022-07-09T05:12:29;15.20;99.90
2407;DHT22;37709;53.480;9.688;2022-07-09T05:14:57;15.30;99.90
2407;DHT22;37709;53.480;9.688;2022-07-09T05:17:24;15.40;99.90
2407;DHT22;37709;53.480;9.688;2022-07-09T05:19:52;15.50;99.90
2407;DHT22;37709;53.480;9.688;2022-07-09T05:22:20;15.50;99.90
2407;DHT22;37709;53.480;9.688;2022-07-09T05:24:47;15.50;99.90
2407;DHT22;37709;53.480;9.688;2022-07-09T05:27:15;15.60;99.90
2407;DHT22;37709;53.480;9.688;2022-07-09T05:29:42;15.60;99.90
2407;DHT22;37709;53.480;9.688;2022-07-09T05:32:09;15.60;99.90
2407;DHT22;37709;53.480;9.688;2022-07-09T05:34:37;15.60;99.90
2407;DHT22;37709;53.480;9.688;2022-07-09T05:37:05;15.70;99.90
2407;DHT22;37709;53.480;9.688;2022-07-09T05:39:40;15.80;99.90
2407;DHT22;37709;53.480;9.688;2022-07-09T05:42:07;15.80;99.90
2407;DHT22;37709;53.480;9.688;2022-07-09T05:44:35;15.90;99.90
2407;DHT22;37709;53.480;9.688;2022-07-09T05:47:03;16.00;99.90
2407;DHT22;37709;53.480;9.688;2022-07-09T05:49:31;16.00;99.90
2407;DHT22;37709;53.480;9.688;2022-07-09T05:51:58;16.00;99.90
2407;DHT22;37709;53.480;9.688;2022-07-09T05:54:26;16.00;99.90
2407;DHT22;37709;53.480;9.688;2022-07-09T05:56:53;16.00;99.90
2407;DHT22;37709;53.480;9.688;2022-07-09T05:59:21;16.10;99.90
2407;DHT22;37709;53.480;9.688;2022-07-09T06:01:48;16.20;99.90
2407;DHT22;37709;53.480;9.688;2022-07-09T06:04:16;16.30;99.90
2407;DHT22;37709;53.480;9.688;2022-07-09T06:06:43;16.40;99.90
2407;DHT22;37709;53.480;9.688;2022-07-09T06:09:11;16.50;99.90
2407;DHT22;37709;53.480;9.688;2022-07-09T06:11:38;16.60;99.90
2407;DHT22;37709;53.480;9.688;2022-07-09T06:14:06;16.70;99.90
2407;DHT22;37709;53.480;9.688;2022-07-09T06:16:33;16.80;99.90
2407;DHT22;37709;53.480;9.688;2022-07-09T06:19:01;17.00;99.90
2407;DHT22;37709;53.480;9.688;2022-07-09T06:21:28;17.10;99.90
2407;DHT22;37709;53.480;9.688;2022-07-09T06:23:56;17.10;99.90
2407;DHT22;37709;53.480;9.688;2022-07-09T06:26:23;17.20;99.90
2407;DHT22;37709;53.480;9.688;2022-07-09T06:28:51;17.30;99.90
2407;DHT22;37709;53.480;9.688;2022-07-09T06:31:18;17.40;99.90
2407;DHT22;37709;53.480;9.688;2022-07-09T06:33:46;17.60;99.90
2407;DHT22;37709;53.480;9.688;2022-07-09T06:36:14;17.80;99.90
2407;DHT22;37709;53.480;9.688;2022-07-09T06:38:41;18.00;99.90
2407;DHT22;37709;53.480;9.688;2022-07-09T06:41:28;18.20;99.90
2407;DHT22;37709;53.480;9.688;2022-07-09T06:43:55;18.30;99.90
2407;DHT22;37709;53.480;9.688;2022-07-09T06:46:23;18.60;99.90
2407;DHT22;37709;53.480;9.688;2022-07-09T06:48:51;19.00;99.90
2407;DHT22;37709;53.480;9.688;2022-07-09T06:51:18;19.20;99.90
2407;DHT22;37709;53.480;9.688;2022-07-09T06:53:45;19.60;99.90
2407;DHT22;37709;53.480;9.688;2022-07-09T06:56:13;19.80;99.90
2407;DHT22;37709;53.480;9.688;2022-07-09T06:58:40;20.10;99.90
2407;DHT22;37709;53.480;9.688;2022-07-09T07:01:09;20.20;99.90
2407;DHT22;37709;53.480;9.688;2022-07-09T07:03:37;20.30;99.90
2407;DHT22;37709;53.480;9.688;2022-07-09T07:06:04;20.30;99.90
2407;DHT22;37709;53.480;9.688;2022-07-09T07:08:32;20.20;99.90
2407;DHT22;37709;53.480;9.688;2022-07-09T07:11:00;20.00;99.90
2407;DHT22;37709;53.480;9.688;2022-07-09T07:13:27;19.90;99.90
2407;DHT22;37709;53.480;9.688;2022-07-09T07:15:55;19.90;99.90
2407;DHT22;37709;53.480;9.688;2022-07-09T07:18:22;20.00;99.90
2407;DHT22;37709;53.480;9.688;2022-07-09T07:20:50;20.10;99.90
2407;DHT22;37709;53.480;9.688;2022-07-09T07:23:18;20.20;99.90
2407;DHT22;37709;53.480;9.688;2022-07-09T07:25:45;20.30;99.90
2407;DHT22;37709;53.480;9.688;2022-07-09T07:28:12;20.80;99.90
2407;DHT22;37709;53.480;9.688;2022-07-09T07:30:40;20.70;99.90
2407;DHT22;37709;53.480;9.688;2022-07-09T07:33:07;21.40;99.90
2407;DHT22;37709;53.480;9.688;2022-07-09T07:35:35;22.70;99.90
2407;DHT22;37709;53.480;9.688;2022-07-09T07:38:02;21.90;99.90
2407;DHT22;37709;53.480;9.688;2022-07-09T07:40:29;21.20;99.90
2407;DHT22;37709;53.480;9.688;2022-07-09T07:42:57;21.10;99.90
2407;DHT22;37709;53.480;9.688;2022-07-09T07:45:24;21.20;99.90
2407;DHT22;37709;53.480;9.688;2022-07-09T07:47:53;21.10;99.90
2407;DHT22;37709;53.480;9.688;2022-07-09T07:50:22;21.20;99.90
2407;DHT22;37709;53.480;9.688;2022-07-09T07:52:50;22.60;99.90
2407;DHT22;37709;53.480;9.688;2022-07-09T07:55:17;23.20;99.90
2407;DHT22;37709;53.480;9.688;2022-07-09T07:57:45;23.80;99.90
2407;DHT22;37709;53.480;9.688;2022-07-09T08:00:38;23.20;99.90
2407;DHT22;37709;53.480;9.688;2022-07-09T08:03:05;22.80;99.90
2407;DHT22;37709;53.480;9.688;2022-07-09T08:05:33;22.50;99.90
2407;DHT22;37709;53.480;9.688;2022-07-09T08:08:01;23.00;99.90
2407;DHT22;37709;53.480;9.688;2022-07-09T08:10:28;23.10;99.90
2407;DHT22;37709;53.480;9.688;2022-07-09T08:13:02;22.90;99.90
2407;DHT22;37709;53.480;9.688;2022-07-09T08:15:30;22.90;99.90
2407;DHT22;37709;53.480;9.688;2022-07-09T08:17:57;22.70;99.90
2407;DHT22;37709;53.480;9.688;2022-07-09T08:20:25;22.80;99.90
2407;DHT22;37709;53.480;9.688;2022-07-09T08:22:53;22.60;99.90
2407;DHT22;37709;53.480;9.688;2022-07-09T08:25:20;22.50;99.90
2407;DHT22;37709;53.480;9.688;2022-07-09T08:27:48;24.00;99.90
2407;DHT22;37709;53.480;9.688;2022-07-09T08:30:16;25.80;99.90
2407;DHT22;37709;53.480;9.688;2022-07-09T08:32:43;26.90;99.00
2407;DHT22;37709;53.480;9.688;2022-07-09T08:35:11;27.30;98.80
2407;DHT22;37709;53.480;9.688;2022-07-09T08:37:38;28.90;95.90
2407;DHT22;37709;53.480;9.688;2022-07-09T08:40:07;27.50;96.10
2407;DHT22;37709;53.480;9.688;2022-07-09T08:42:34;25.70;98.70
2407;DHT22;37709;53.480;9.688;2022-07-09T08:45:02;26.20;98.50
2407;DHT22;37709;53.480;9.688;2022-07-09T08:47:30;27.20;96.70
2407;DHT22;37709;53.480;9.688;2022-07-09T08:49:58;29.20;93.90
2407;DHT22;37709;53.480;9.688;2022-07-09T08:52:27;30.50;92.50
2407;DHT22;37709;53.480;9.688;2022-07-09T08:54:55;30.20;91.30
2407;DHT22;37709;53.480;9.688;2022-07-09T08:57:26;31.20;90.30
2407;DHT22;37709;53.480;9.688;2022-07-09T08:59:53;29.30;91.60
2407;DHT22;37709;53.480;9.688;2022-07-09T09:02:21;28.20;92.40
2407;DHT22;37709;53.480;9.688;2022-07-09T09:04:49;26.90;94.20
2407;DHT22;37709;53.480;9.688;2022-07-09T09:07:19;25.70;95.80
2407;DHT22;37709;53.480;9.688;2022-07-09T09:09:48;24.90;96.60
2407;DHT22;37709;53.480;9.688;2022-07-09T09:12:27;24.10;97.80
2407;DHT22;37709;53.480;9.688;2022-07-09T09:14:55;23.60;98.50
2407;DHT22;37709;53.480;9.688;2022-07-09T09:17:23;25.40;98.10
2407;DHT22;37709;53.480;9.688;2022-07-09T09:19:50;29.50;93.30
2407;DHT22;37709;53.480;9.688;2022-07-09T09:22:18;29.60;92.30
2407;DHT22;37709;53.480;9.688;2022-07-09T09:24:49;32.70;88.70
2407;DHT22;37709;53.480;9.688;2022-07-09T09:27:17;31.00;88.10
2407;DHT22;37709;53.480;9.688;2022-07-09T09:29:51;28.30;91.00
2407;DHT22;37709;53.480;9.688;2022-07-09T09:32:19;26.40;93.70
2407;DHT22;37709;53.480;9.688;2022-07-09T09:34:49;24.80;96.20
2407;DHT22;37709;53.480;9.688;2022-07-09T09:37:29;23.90;97.20
2407;DHT22;37709;53.480;9.688;2022-07-09T09:39:57;23.50;98.20
2407;DHT22;37709;53.480;9.688;2022-07-09T09:42:25;27.00;95.60
2407;DHT22;37709;53.480;9.688;2022-07-09T09:44:54;27.60;93.90
2407;DHT22;37709;53.480;9.688;2022-07-09T09:47:25;31.00;90.50
2407;DHT22;37709;53.480;9.688;2022-07-09T09:49:54;32.90;82.00
2407;DHT22;37709;53.480;9.688;2022-07-09T09:52:24;32.30;79.00
2407;DHT22;37709;53.480;9.688;2022-07-09T09:54:52;30.90;80.80
2407;DHT22;37709;53.480;9.688;2022-07-09T09:57:21;30.20;79.50
2407;DHT22;37709;53.480;9.688;2022-07-09T09:59:52;29.20;84.90
2407;DHT22;37709;53.480;9.688;2022-07-09T10:02:23;30.60;80.60
2407;DHT22;37709;53.480;9.688;2022-07-09T10:04:52;33.70;75.70
2407;DHT22;37709;53.480;9.688;2022-07-09T10:07:19;34.40;68.50
2407;DHT22;37709;53.480;9.688;2022-07-09T10:09:54;31.80;72.50
2407;DHT22;37709;53.480;9.688;2022-07-09T10:12:30;33.50;69.60
2407;DHT22;37709;53.480;9.688;2022-07-09T10:14:58;35.40;63.70
2407;DHT22;37709;53.480;9.688;2022-07-09T10:17:27;33.70;66.70
2407;DHT22;37709;53.480;9.688;2022-07-09T10:22:36;30.20;72.30
2407;DHT22;37709;53.480;9.688;2022-07-09T10:25:05;28.80;76.10
2407;DHT22;37709;53.480;9.688;2022-07-09T10:27:44;27.90;80.20
2407;DHT22;37709;53.480;9.688;2022-07-09T10:30:31;30.40;77.60
2407;DHT22;37709;53.480;9.688;2022-07-09T10:33:12;34.20;69.00
2407;DHT22;37709;53.480;9.688;2022-07-09T10:35:45;35.40;62.50
2407;DHT22;37709;53.480;9.688;2022-07-09T10:38:14;36.60;58.10
2407;DHT22;37709;53.480;9.688;2022-07-09T10:40:44;37.30;57.90
2407;DHT22;37709;53.480;9.688;2022-07-09T10:43:12;38.20;54.40
2407;DHT22;37709;53.480;9.688;2022-07-09T10:45:45;35.00;57.80
2407;DHT22;37709;53.480;9.688;2022-07-09T10:48:15;32.20;62.10
2407;DHT22;37709;53.480;9.688;2022-07-09T10:50:45;31.40;66.90
2407;DHT22;37709;53.480;9.688;2022-07-09T10:53:15;32.90;61.80
2407;DHT22;37709;53.480;9.688;2022-07-09T10:55:45;31.70;64.50
2407;DHT22;37709;53.480;9.688;2022-07-09T10:58:19;29.60;67.10
2407;DHT22;37709;53.480;9.688;2022-07-09T11:00:58;26.80;76.80
2407;DHT22;37709;53.480;9.688;2022-07-09T11:03:28;24.20;92.30
2407;DHT22;37709;53.480;9.688;2022-07-09T11:05:56;22.70;99.90
2407;DHT22;37709;53.480;9.688;2022-07-09T11:08:24;22.00;99.90
2407;DHT22;37709;53.480;9.688;2022-07-09T11:10:51;21.90;99.90
2407;DHT22;37709;53.480;9.688;2022-07-09T11:13:23;21.60;99.90
2407;DHT22;37709;53.480;9.688;2022-07-09T11:15:58;21.20;99.90
2407;DHT22;37709;53.480;9.688;2022-07-09T11:18:27;21.00;99.90
2407;DHT22;37709;53.480;9.688;2022-07-09T11:20:55;21.10;99.90
2407;DHT22;37709;53.480;9.688;2022-07-09T11:23:23;21.90;99.90
2407;DHT22;37709;53.480;9.688;2022-07-09T11:25:50;25.50;99.90
2407;DHT22;37709;53.480;9.688;2022-07-09T11:28:22;29.20;98.80
2407;DHT22;37709;53.480;9.688;2022-07-09T11:31:04;31.30;94.20
2407;DHT22;37709;53.480;9.688;2022-07-09T11:33:33;32.20;88.90
2407;DHT22;37709;53.480;9.688;2022-07-09T11:36:22;32.80;86.80
2407;DHT22;37709;53.480;9.688;2022-07-09T11:38:51;32.20;85.30
2407;DHT22;37709;53.480;9.688;2022-07-09T11:41:20;33.40;82.60
2407;DHT22;37709;53.480;9.688;2022-07-09T11:43:48;34.00;79.20
2407;DHT22;37709;53.480;9.688;2022-07-09T11:46:20;34.80;80.50
2407;DHT22;37709;53.480;9.688;2022-07-09T11:48:54;36.30;69.80
2407;DHT22;37709;53.480;9.688;2022-07-09T11:51:32;36.60;66.30
2407;DHT22;37709;53.480;9.688;2022-07-09T11:54:02;34.20;68.20
2407;DHT22;37709;53.480;9.688;2022-07-09T11:56:42;35.70;65.70
2407;DHT22;37709;53.480;9.688;2022-07-09T11:59:40;36.30;61.80
2407;DHT22;37709;53.480;9.688;2022-07-09T12:02:09;35.40;60.70
2407;DHT22;37709;53.480;9.688;2022-07-09T12:04:37;32.70;66.60
2407;DHT22;37709;53.480;9.688;2022-07-09T12:07:09;31.00;69.20
2407;DHT22;37709;53.480;9.688;2022-07-09T12:09:37;29.00;71.90
2407;DHT22;37709;53.480;9.688;2022-07-09T12:12:05;28.60;74.60
2407;DHT22;37709;53.480;9.688;2022-07-09T12:14:32;30.50;70.00
2407;DHT22;37709;53.480;9.688;2022-07-09T12:17:03;28.70;70.70
2407;DHT22;37709;53.480;9.688;2022-07-09T12:19:31;27.30;75.70
2407;DHT22;37709;53.480;9.688;2022-07-09T12:21:58;28.70;75.70
2407;DHT22;37709;53.480;9.688;2022-07-09T12:24:26;30.20;69.50
2407;DHT22;37709;53.480;9.688;2022-07-09T12:26:53;28.90;70.20
2407;DHT22;37709;53.480;9.688;2022-07-09T12:29:43;28.90;69.20
2407;DHT22;37709;53.480;9.688;2022-07-09T12:32:11;30.00;66.90
2407;DHT22;37709;53.480;9.688;2022-07-09T12:34:39;30.40;67.40
2407;DHT22;37709;53.480;9.688;2022-07-09T12:37:07;29.50;67.50
2407;DHT22;37709;53.480;9.688;2022-07-09T12:39:35;30.30;67.70
2407;DHT22;37709;53.480;9.688;2022-07-09T12:42:03;32.40;62.90
2407;DHT22;37709;53.480;9.688;2022-07-09T12:44:30;32.70;61.60
2407;DHT22;37709;53.480;9.688;2022-07-09T12:46:59;33.00;58.50
2407;DHT22;37709;53.480;9.688;2022-07-09T12:49:32;31.10;59.60
2407;DHT22;37709;53.480;9.688;2022-07-09T12:52:00;31.70;60.70
2407;DHT22;37709;53.480;9.688;2022-07-09T12:54:27;32.60;59.60
2407;DHT22;37709;53.480;9.688;2022-07-09T12:56:55;31.30;57.50
2407;DHT22;37709;53.480;9.688;2022-07-09T12:59:38;31.10;58.70
2407;DHT22;37709;53.480;9.688;2022-07-09T13:02:06;31.60;57.40
2407;DHT22;37709;53.480;9.688;2022-07-09T13:04:34;32.20;56.00
2407;DHT22;37709;53.480;9.688;2022-07-09T13:07:03;33.00;55.60
2407;DHT22;37709;53.480;9.688;2022-07-09T13:09:30;33.90;54.00
2407;DHT22;37709;53.480;9.688;2022-07-09T13:11:58;34.00;53.40
2407;DHT22;37709;53.480;9.688;2022-07-09T13:14:25;34.10;52.40
2407;DHT22;37709;53.480;9.688;2022-07-09T13:16:53;33.10;51.90
2407;DHT22;37709;53.480;9.688;2022-07-09T13:19:40;33.30;53.70
2407;DHT22;37709;53.480;9.688;2022-07-09T13:22:08;31.70;51.30
2407;DHT22;37709;53.480;9.688;2022-07-09T13:24:36;32.30;51.60
2407;DHT22;37709;53.480;9.688;2022-07-09T13:27:04;32.30;51.00
2407;DHT22;37709;53.480;9.688;2022-07-09T13:29:35;31.90;51.80
2407;DHT22;37709;53.480;9.688;2022-07-09T13:32:03;33.00;52.10
2407;DHT22;37709;53.480;9.688;2022-07-09T13:34:31;33.10;50.10
2407;DHT22;37709;53.480;9.688;2022-07-09T13:36:59;32.30;50.30
2407;DHT22;37709;53.480;9.688;2022-07-09T13:39:28;31.40;52.10
2407;DHT22;37709;53.480;9.688;2022-07-09T13:41:56;29.10;55.40
2407;DHT22;37709;53.480;9.688;2022-07-09T13:44:23;28.80;57.40
2407;DHT22;37709;53.480;9.688;2022-07-09T13:46:51;30.00;55.30
2407;DHT22;37709;53.480;9.688;2022-07-09T13:49:20;30.20;55.30
2407;DHT22;37709;53.480;9.688;2022-07-09T13:51:49;29.90;56.10
2407;DHT22;37709;53.480;9.688;2022-07-09T13:54:17;29.60;56.50
2407;DHT22;37709;53.480;9.688;2022-07-09T13:56:44;28.80;56.70
2407;DHT22;37709;53.480;9.688;2022-07-09T13:59:12;27.90;57.50
2407;DHT22;37709;53.480;9.688;2022-07-09T14:01:39;26.80;58.70
2407;DHT22;37709;53.480;9.688;2022-07-09T14:04:07;25.60;62.20
2407;DHT22;37709;53.480;9.688;2022-07-09T14:06:34;25.00;63.20
2407;DHT22;37709;53.480;9.688;2022-07-09T14:09:13;24.30;65.30
2407;DHT22;37709;53.480;9.688;2022-07-09T14:11:40;23.30;67.20
2407;DHT22;37709;53.480;9.688;2022-07-09T14:14:08;22.80;68.70
2407;DHT22;37709;53.480;9.688;2022-07-09T14:16:35;22.60;70.10
2407;DHT22;37709;53.480;9.688;2022-07-09T14:19:03;22.40;71.50
2407;DHT22;37709;53.480;9.688;2022-07-09T14:21:30;22.00;73.00
2407;DHT22;37709;53.480;9.688;2022-07-09T14:23:58;22.00;71.00
2407;DHT22;37709;53.480;9.688;2022-07-09T14:26:26;22.50;70.60
2407;DHT22;37709;53.480;9.688;2022-07-09T14:28:54;22.70;70.90
2407;DHT22;37709;53.480;9.688;2022-07-09T14:31:21;23.50;70.20
2407;DHT22;37709;53.480;9.688;2022-07-09T14:33:49;25.50;65.80
2407;DHT22;37709;53.480;9.688;2022-07-09T14:36:16;25.10;64.30
2407;DHT22;37709;53.480;9.688;2022-07-09T14:38:43;24.40;67.80
2407;DHT22;37709;53.480;9.688;2022-07-09T14:41:11;24.20;67.90
2407;DHT22;37709;53.480;9.688;2022-07-09T14:43:38;23.30;67.90
2407;DHT22;37709;53.480;9.688;2022-07-09T14:46:07;23.60;67.20
2407;DHT22;37709;53.480;9.688;2022-07-09T14:48:36;24.20;66.00
2407;DHT22;37709;53.480;9.688;2022-07-09T14:51:04;24.50;65.30
2407;DHT22;37709;53.480;9.688;2022-07-09T14:53:33;25.20;65.90
2407;DHT22;37709;53.480;9.688;2022-07-09T14:56:07;24.60;65.10
2407;DHT22;37709;53.480;9.688;2022-07-09T14:58:35;24.60;64.90
2407;DHT22;37709;53.480;9.688;2022-07-09T15:01:04;24.50;66.80
2407;DHT22;37709;53.480;9.688;2022-07-09T15:03:32;25.10;65.50
2407;DHT22;37709;53.480;9.688;2022-07-09T15:06:00;25.30;62.90
2407;DHT22;37709;53.480;9.688;2022-07-09T15:08:27;24.70;63.50
2407;DHT22;37709;53.480;9.688;2022-07-09T15:10:54;25.00;63.90
2407;DHT22;37709;53.480;9.688;2022-07-09T15:13:22;25.10;62.50
2407;DHT22;37709;53.480;9.688;2022-07-09T15:15:50;24.30;62.70
2407;DHT22;37709;53.480;9.688;2022-07-09T15:18:17;23.60;63.90
2407;DHT22;37709;53.480;9.688;2022-07-09T15:20:45;22.70;62.10
2407;DHT22;37709;53.480;9.688;2022-07-09T15:23:12;21.80;64.90
2407;DHT22;37709;53.480;9.688;2022-07-09T15:25:40;21.20;66.60
2407;DHT22;37709;53.480;9.688;2022-07-09T15:28:07;21.10;66.70
2407;DHT22;37709;53.480;9.688;2022-07-09T15:30:35;20.90;65.50
2407;DHT22;37709;53.480;9.688;2022-07-09T15:33:02;21.00;67.10
2407;DHT22;37709;53.480;9.688;2022-07-09T15:35:30;21.60;66.30
2407;DHT22;37709;53.480;9.688;2022-07-09T15:37:57;21.50;66.00
2407;DHT22;37709;53.480;9.688;2022-07-09T15:40:25;21.10;68.30
2407;DHT22;37709;53.480;9.688;2022-07-09T15:42:54;20.80;69.60
2407;DHT22;37709;53.480;9.688;2022-07-09T15:45:21;20.80;69.90
2407;DHT22;37709;53.480;9.688;2022-07-09T15:47:49;21.00;70.60
2407;DHT22;37709;53.480;9.688;2022-07-09T15:50:18;21.10;71.10
2407;DHT22;37709;53.480;9.688;2022-07-09T15:52:48;21.20;71.40
2407;DHT22;37709;53.480;9.688;2022-07-09T15:55:15;21.30;72.80
2407;DHT22;37709;53.480;9.688;2022-07-09T15:57:43;21.60;72.40